Greenland, MI (49929)

8:28 PM EDT on July 27, 2016 (GMT -0400)
MesoWest | | Change Station

Elev 1026 ft 46.72 °N, 89.15 °W | Updated 38 minutes ago

Overcast
Overcast
63 °F
Feels Like 63 °F
N
4
Wind Variable Wind from ESE
Gusts 0.0 mph

Today
High -- | Low -- °F
--% Chance of Precip.
Yesterday
High -- | Low -- °F
Precip. -- in
Pressure 30.01 in
Visibility 10.0 miles
Clouds Scattered Clouds 300 ft
Overcast 9500 ft
Dew Point 61 °F
Humidity 93%
Rainfall in
Snow Depth Not available.
6:31 AM 9:33 PM
Last Quarter, 38% visible
SPECI KCMX 280011Z AUTO 06003KT 10SM SCT003 OVC095 17/15 A3001 RMK AO2 T01670150
Pressure 30.01 in
Visibility 10.0 miles
Clouds Scattered Clouds 300 ft
Overcast 9500 ft
Dew Point 61 °F
Humidity 93%
Rainfall in
Snow Depth Not available.
6:31 AM 9:33 PM
Last Quarter, 38% visible
SPECI KCMX 280011Z AUTO 06003KT 10SM SCT003 OVC095 17/15 A3001 RMK AO2 T01670150

10-Day Weather Forecast

Almanac

Astronomy

Jul. 27, 2016 Rise Set
Actual Time
Civil Twilight
Nautical Twilight
Astronomical Twilight
Moon
Length of Visible Light
Length of Day
Tomorrow will be .
, % of the Moon is Illuminated

Today's Extremes

State Highs State Lows

Community

WunderPhotos

Upload Photos

1,927,975 photos uploaded!

WunderBlog® & News

Nearby

Air Quality

  Air Quality AQ Index Pollutant
Not available.

Snow Depth

Station Depth Elevation

Earthquake Activity

City Distance Mag. Time & Date
Minimum magnitude displayed is 2.5.

Coastal Water Temperatures

Place Temperature

Stations

Nearby Weather Stations

Station Location Temp. Windchill Dew Point Humidity Wind Precip. Elev Updated Type
                   

Watches & Warnings

There are currently no watches in effect.